Portada
METAR-TAF:

METAR-TAF

Aeroports :

Kuopio, Finlàndia

latitud: 63-01N, longitud: 027-48E, altitud: 98 m

Observació

L'informe es va fer fa 19 minuts, a les 00:50 UTC
Vent 3 kt amb direcció variable
Temperatura 16°C
Humitat 82%
Pressió 1012 hPa
Visibilitat 10 km o més
Escasses núvols a una alçada de 3900 ft
Cel cobert a una alçada de 9500 ft

METAR: EFKU 200050Z AUTO VRB03KT 9999 FEW039 OVC095 16/13 Q1012

Hora: 04:09 (01:09 UTC)

Pronòstic

L'informe es va fer fa 1 hora i 46 minuts, a les 23:23 UTC
Pronòstic vàlid del 20 a les 00 UTC al 20 a les 24 UTC
Vent 3 kt del Nord/Nord-Oest
Visibilitat 10 km o més
sense núvols per sota de 1500 mi sense presència de cumulonimbus.
Probabilitat 30%
l' 20 a les 00 UTC al 20 a les 03 UTC
Visibilitat: 6000 m
Cel ennuvolat a una alçada de 900 ft
Escasses núvols a una alçada de 4500 ft, Cumulonimbus.
xàfecs de pluja

TAF: EFKU 192323Z 2000/2024 34003KT CAVOK PROB30 2000/2003 6000 SHRA BKN009 FEW045CB

Observacions i pronòstics meteorològics de més de 4000 aeroports (METAR i TAF).

Les estacions disponibles són els punts grocs i vermells al mapa.

Posi el ratolí al punt desitjat per veure el nom de l'estació.

Feu clic per veure les observacions i els pronòstics meteorològics.

Per canviar el mapa: feu clic els botons verds amb una creu de color negre per apropar; al botó verd amb un guió per allunyar la imatge; o en les fletxes verdes per a mapes adjacents.


METAR-TAF: